Terminal Aerodrome Forecast
Issued by NWS

Home | Current Version | Previous Version | Text Only | Print | Product List | Glossary On
Versions: 1 2 3 4 5 6 7 8 9 10 11 12 13
387
FTUS45 KREV 262344
TAFMMH
TAF
KMMH 262344Z 2700/2724 25009G18KT P6SM FEW070
     FM270400 30009KT P6SM SKC
     FM271900 10008KT P6SM FEW070=

USA.gov is the U.S. government's official web portal to all federal, state and local government web resources and services.